Terminal Aerodrome Forecast
Issued by NWS

Home | Current Version | Previous Version | Text Only | Print | Product List | Glossary On
Versions: 1 2 3 4 5 6 7 8 9 10 11 12 13 14 15
000
FTUS45 KRIW 201134
TAFRKS
TAF
KRKS 201134Z 2012/2112 12006KT P6SM BKN015
     FM201500 24006KT P6SM FEW020 SCT050
     FM201800 26012G20KT P6SM SCT060
     FM210100 24008KT P6SM FEW070=

USA.gov is the U.S. government's official web portal to all federal, state and local government web resources and services.